Terminal Aerodrome Forecast
Issued by NWS

Home | Current Version | Previous Version | Text Only | Print | Product List | Glossary On
Versions: 1 2 3 4 5 6 7 8 9 10 11 12 13 14 15
149
FTUS45 KPSR 212328
TAFBLH
TAF
KBLH 212328Z 2200/2224 23010KT P6SM FEW070
     FM220300 23007KT P6SM BKN150
     FM221200 18012KT P6SM BKN120=

USA.gov is the U.S. government's official web portal to all federal, state and local government web resources and services.